This is the latest recevied weather packets stored in our database for station/object KC3BHK-2. If no packets are shown the sender has not sent any weather packets the latest 10 day(s).
| Time | Temp. | Humidity | Pressure | Rain* | Wind** | Luminosity | Snow |
|---|---|---|---|---|---|---|---|
| 1777564571 | 18.33° C | - | - | 0 mm | 3.58 m/s, 267° | - | - |
| 1777564264 | 18.89° C | - | - | 0 mm | 6.26 m/s, 280° | - | - |
| 1777563655 | 18.33° C | - | - | 0 mm | 3.13 m/s, 291° | - | - |
| 1777563350 | 17.22° C | - | - | 0 mm | 6.71 m/s, 260° | - | - |
| 1777563045 | 17.22° C | - | - | 0 mm | 4.92 m/s, 277° | - | - |
| 1777562740 | 17.22° C | - | - | 0 mm | 4.02 m/s, 290° | - | - |
| 1777562433 | 16.67° C | - | - | 0 mm | 3.13 m/s, 294° | - | - |
| 1777562128 | 15.56° C | - | - | 0 mm | 4.92 m/s, 257° | - | - |
| 1777561823 | 16.67° C | - | - | 0 mm | 5.81 m/s, 250° | - | - |
| 1777561519 | 16.11° C | - | - | 0 mm | 3.58 m/s, 300° | - | - |
| 1777561214 | 17.22° C | - | - | 0 mm | 4.47 m/s, 274° | - | - |
| 1777560909 | 16.67° C | - | - | 0 mm | 3.58 m/s, 302° | - | - |
| 1777560602 | 17.22° C | - | - | 0 mm | 4.02 m/s, 297° | - | - |
| 1777560297 | 16.67° C | - | - | 0 mm | 7.15 m/s, 257° | - | - |
| 1777559992 | 17.78° C | - | - | 0 mm | 4.47 m/s, 269° | - | - |
| 1777559687 | 17.22° C | - | - | 0 mm | 6.26 m/s, 285° | - | - |
| 1777559383 | 17.22° C | - | - | 0 mm | 6.71 m/s, 262° | - | - |
| 1777559078 | 17.78° C | - | - | 0 mm | 3.58 m/s, 269° | - | - |
| 1777558770 | 17.22° C | - | - | 0 mm | 2.68 m/s, 283° | - | - |
| 1777558465 | 16.67° C | - | - | 0 mm | 4.92 m/s, 280° | - | - |
| 1777558161 | 16.67° C | - | - | 0 mm | 3.13 m/s, 305° | - | - |
| 1777557551 | 15° C | - | - | 0 mm | 3.13 m/s, 276° | - | - |
| 1777557246 | 15.56° C | - | - | 0 mm | 4.47 m/s, 273° | - | - |
| 1777556634 | 15.56° C | - | - | 0 mm | 3.58 m/s, 283° | - | - |
| 1777556023 | 14.44° C | - | - | 0 mm | 1.79 m/s, 300° | - | - |
* Rain latest hour (hover to see other rain measurements)
** Current wind speed in m/s (hover to see current wind gust speed)